createdAt,value
2019-01-23T00:01:21.910Z,43.28
2019-01-23T00:02:24.229Z,43.26
2019-01-23T00:03:26.164Z,43.28
2019-01-23T00:04:28.186Z,43.28
2019-01-23T00:05:30.145Z,43.21
2019-01-23T00:06:32.309Z,43.26
2019-01-23T00:07:34.273Z,43.25
2019-01-23T00:08:36.298Z,43.23
2019-01-23T00:09:38.259Z,43.24
2019-01-23T00:10:40.255Z,43.25
2019-01-23T00:11:42.204Z,43.20
2019-01-23T00:12:44.213Z,43.22
2019-01-23T00:13:46.166Z,43.28
2019-01-23T00:14:48.122Z,43.21
2019-01-23T00:15:50.183Z,43.20
2019-01-23T00:16:55.253Z,43.19
2019-01-23T00:17:57.280Z,43.21
2019-01-23T00:18:59.240Z,43.20
2019-01-23T00:20:01.207Z,43.16
2019-01-23T00:21:03.206Z,43.17
2019-01-23T00:22:05.176Z,43.15
2019-01-23T00:23:07.210Z,43.17
2019-01-23T00:24:09.161Z,43.19
2019-01-23T00:25:11.114Z,43.18
2019-01-23T00:26:14.666Z,43.15
2019-01-23T00:27:16.617Z,43.19
2019-01-23T00:28:18.570Z,43.13
2019-01-23T00:29:20.529Z,43.13
2019-01-23T00:30:23.740Z,43.18
2019-01-23T00:31:25.863Z,43.13
2019-01-23T00:32:28.335Z,43.12
2019-01-23T00:33:30.310Z,43.15
2019-01-23T00:34:32.332Z,43.16
2019-01-23T00:35:35.102Z,43.14
2019-01-23T00:36:37.158Z,43.13
2019-01-23T00:37:39.111Z,43.19
2019-01-23T00:38:41.057Z,43.18
2019-01-23T00:39:45.615Z,43.14
2019-01-23T00:40:47.562Z,43.15
2019-01-23T00:41:49.516Z,43.15
2019-01-23T00:42:51.523Z,43.11
2019-01-23T00:43:53.691Z,43.07
2019-01-23T00:44:55.909Z,43.10
2019-01-23T00:45:57.863Z,43.06
2019-01-23T00:46:59.851Z,43.04
2019-01-23T00:48:01.812Z,43.04
2019-01-23T00:49:04.169Z,43.02
2019-01-23T00:50:06.118Z,43.04
2019-01-23T00:51:10.425Z,43.00
2019-01-23T00:52:12.389Z,43.00
2019-01-23T00:53:14.717Z,42.98
2019-01-23T00:54:16.845Z,42.99
2019-01-23T00:55:18.953Z,42.97
2019-01-23T00:56:20.870Z,42.94
2019-01-23T00:57:22.846Z,42.97
2019-01-23T00:58:25.269Z,42.95
2019-01-23T00:59:27.237Z,42.93
2019-01-23T01:00:29.256Z,42.94
2019-01-23T01:01:31.205Z,42.95
2019-01-23T01:02:33.188Z,42.99
2019-01-23T01:03:35.220Z,42.96
2019-01-23T01:04:37.163Z,42.97
2019-01-23T01:05:39.113Z,42.95
2019-01-23T01:06:41.222Z,42.96
2019-01-23T01:07:43.210Z,42.96
2019-01-23T01:08:45.724Z,42.96
2019-01-23T01:09:47.665Z,42.91
2019-01-23T01:10:49.614Z,42.93
2019-01-23T01:11:51.550Z,42.90
2019-01-23T01:12:53.784Z,42.91
2019-01-23T01:13:56.044Z,42.89
2019-01-23T01:14:57.998Z,42.91
2019-01-23T01:15:59.946Z,42.89
2019-01-23T01:17:01.962Z,42.91
2019-01-23T01:18:03.928Z,42.88
2019-01-23T01:19:05.921Z,42.90
2019-01-23T01:20:07.866Z,42.92
2019-01-23T01:21:09.817Z,42.92
2019-01-23T01:22:13.860Z,42.91
2019-01-23T01:23:15.839Z,42.90
2019-01-23T01:24:17.782Z,42.92
2019-01-23T01:25:19.721Z,42.88
2019-01-23T01:26:21.796Z,42.89
2019-01-23T01:27:23.823Z,42.89
2019-01-23T01:28:25.772Z,42.89
2019-01-23T01:29:27.846Z,42.86
2019-01-23T01:30:29.809Z,42.87
2019-01-23T01:31:31.747Z,42.90
2019-01-23T01:32:33.691Z,42.88
2019-01-23T01:33:35.654Z,42.87
2019-01-23T01:34:37.612Z,42.87
2019-01-23T01:35:39.561Z,42.89
2019-01-23T01:36:41.516Z,42.88
2019-01-23T01:37:43.487Z,42.88
2019-01-23T01:38:45.650Z,42.88
2019-01-23T01:39:47.597Z,42.87
2019-01-23T01:40:49.525Z,42.88
2019-01-23T01:41:53.592Z,42.83
2019-01-23T01:42:55.541Z,42.85
2019-01-23T01:43:57.496Z,42.86
2019-01-23T01:44:59.450Z,42.85
2019-01-23T01:46:01.477Z,42.83
2019-01-23T01:47:03.426Z,42.80
2019-01-23T01:48:05.362Z,42.85
2019-01-23T01:49:07.332Z,42.85
2019-01-23T01:50:09.335Z,42.79
2019-01-23T01:51:11.286Z,42.79
2019-01-23T01:52:13.237Z,42.85
2019-01-23T01:53:15.195Z,42.78
2019-01-23T01:54:17.184Z,42.83
2019-01-23T01:55:19.141Z,42.81
2019-01-23T01:56:21.082Z,42.81
2019-01-23T01:57:23.031Z,42.82
2019-01-23T01:58:24.969Z,42.82
2019-01-23T01:59:26.949Z,42.83
2019-01-23T02:00:28.884Z,42.84
2019-01-23T02:01:30.837Z,42.83
2019-01-23T02:02:35.593Z,42.86
2019-01-23T02:03:37.527Z,42.83
2019-01-23T02:04:39.504Z,42.82
2019-01-23T02:05:41.450Z,42.82
2019-01-23T02:06:43.461Z,42.82
2019-01-23T02:07:45.438Z,42.83
2019-01-23T02:08:47.400Z,42.84
2019-01-23T02:09:49.385Z,42.85
2019-01-23T02:10:51.330Z,42.89
2019-01-23T02:11:54.815Z,42.85
2019-01-23T02:12:56.754Z,42.89
2019-01-23T02:13:58.844Z,42.83
2019-01-23T02:15:00.851Z,42.82
2019-01-23T02:16:02.789Z,42.85
2019-01-23T02:17:04.744Z,42.82
2019-01-23T02:18:06.694Z,42.83
2019-01-23T02:19:08.619Z,42.81
2019-01-23T02:20:10.676Z,42.81
2019-01-23T02:21:12.615Z,42.89
2019-01-23T02:22:14.544Z,42.84
2019-01-23T02:23:16.509Z,42.83
2019-01-23T02:24:18.449Z,42.84
2019-01-23T02:25:20.698Z,42.82
2019-01-23T02:26:22.670Z,42.82
2019-01-23T02:27:24.612Z,42.82
2019-01-23T02:28:26.567Z,42.81
2019-01-23T02:29:28.525Z,42.86
2019-01-23T02:30:30.509Z,42.83
2019-01-23T02:31:32.538Z,42.87
2019-01-23T02:32:34.564Z,42.83
2019-01-23T02:33:36.513Z,42.83
2019-01-23T02:34:38.505Z,42.83
2019-01-23T02:35:40.493Z,42.83
2019-01-23T02:36:42.446Z,42.82
2019-01-23T02:37:44.386Z,42.79
2019-01-23T02:38:46.321Z,42.79
2019-01-23T02:39:48.266Z,42.76
2019-01-23T02:40:50.322Z,42.76
2019-01-23T02:41:52.324Z,42.77
2019-01-23T02:42:54.282Z,42.78
2019-01-23T02:43:56.234Z,42.75
2019-01-23T02:44:58.185Z,42.77
2019-01-23T02:46:00.171Z,42.74
2019-01-23T02:47:02.110Z,42.72
2019-01-23T02:48:04.048Z,42.73
2019-01-23T02:49:05.996Z,42.73
2019-01-23T02:50:08.020Z,42.71
2019-01-23T02:51:10.073Z,42.70
2019-01-23T02:52:12.013Z,42.70
2019-01-23T02:53:13.970Z,42.68
2019-01-23T02:54:15.914Z,42.69
2019-01-23T02:55:17.851Z,42.70
2019-01-23T02:56:19.824Z,42.68
2019-01-23T02:57:21.826Z,42.69
2019-01-23T02:58:23.771Z,42.68
2019-01-23T02:59:25.716Z,42.68
2019-01-23T03:00:27.731Z,42.69
2019-01-23T03:01:29.775Z,42.69
2019-01-23T03:02:31.752Z,42.71
2019-01-23T03:03:33.776Z,42.67
2019-01-23T03:04:35.723Z,42.68
2019-01-23T03:05:37.738Z,42.68
2019-01-23T03:06:39.671Z,42.70
2019-01-23T03:07:41.624Z,42.65
2019-01-23T03:08:43.741Z,42.65
2019-01-23T03:09:45.754Z,42.64
2019-01-23T03:10:47.699Z,42.63
2019-01-23T03:11:49.753Z,42.65
2019-01-23T03:12:51.723Z,42.68
2019-01-23T03:13:53.745Z,42.65
2019-01-23T03:14:56.954Z,42.65
2019-01-23T03:15:58.967Z,42.66
2019-01-23T03:17:00.944Z,42.63
2019-01-23T03:18:02.899Z,42.65
2019-01-23T03:19:05.415Z,42.60
2019-01-23T03:20:07.375Z,42.60
2019-01-23T03:21:09.317Z,42.59
2019-01-23T03:22:12.207Z,42.59
2019-01-23T03:23:14.144Z,42.58
2019-01-23T03:24:16.100Z,42.57
2019-01-23T03:25:18.114Z,42.59
2019-01-23T03:26:23.041Z,42.56
2019-01-23T03:27:25.028Z,42.57
2019-01-23T03:28:27.354Z,42.57
2019-01-23T03:29:29.309Z,42.55
2019-01-23T03:30:31.261Z,42.57
2019-01-23T03:31:33.215Z,42.56
2019-01-23T03:32:35.178Z,42.54
2019-01-23T03:33:37.128Z,42.55
2019-01-23T03:34:39.079Z,42.56
2019-01-23T03:35:41.274Z,42.49
2019-01-23T03:36:43.235Z,42.51
2019-01-23T03:37:45.176Z,42.55
2019-01-23T03:38:47.131Z,42.57
2019-01-23T03:39:49.069Z,42.54
2019-01-23T03:40:50.991Z,42.56
2019-01-23T03:41:52.942Z,42.53
2019-01-23T03:42:54.913Z,42.54
2019-01-23T03:43:56.847Z,42.53
2019-01-23T03:44:58.776Z,42.52
2019-01-23T03:46:00.723Z,42.53
2019-01-23T03:47:02.655Z,42.50
2019-01-23T03:48:04.614Z,42.51
2019-01-23T03:49:06.642Z,42.56
2019-01-23T03:50:08.594Z,42.51
2019-01-23T03:51:10.551Z,42.50
2019-01-23T03:52:12.573Z,42.52
2019-01-23T03:53:14.532Z,42.50
2019-01-23T03:54:16.477Z,42.48
2019-01-23T03:55:18.438Z,42.50
2019-01-23T03:56:20.474Z,42.51
2019-01-23T03:57:22.499Z,42.50
2019-01-23T03:58:24.532Z,42.50
2019-01-23T03:59:32.129Z,42.49
2019-01-23T04:00:30.159Z,42.52
2019-01-23T04:01:32.285Z,42.53
2019-01-23T04:02:34.243Z,42.56
2019-01-23T04:03:36.210Z,42.52
2019-01-23T04:04:38.301Z,42.50
2019-01-23T04:05:40.313Z,42.50
2019-01-23T04:06:42.253Z,42.51
2019-01-23T04:07:44.189Z,42.47
2019-01-23T04:08:46.141Z,42.51
2019-01-23T04:09:48.081Z,42.54
2019-01-23T04:10:50.057Z,42.50
2019-01-23T04:11:52.071Z,42.50
2019-01-23T04:12:54.021Z,42.51
2019-01-23T04:13:56.130Z,42.50
2019-01-23T04:14:58.062Z,42.51
2019-01-23T04:16:00.009Z,42.46
2019-01-23T04:17:01.935Z,42.48
2019-01-23T04:18:03.893Z,42.52
2019-01-23T04:19:05.854Z,42.53
2019-01-23T04:20:07.868Z,42.50
2019-01-23T04:21:09.825Z,42.44
2019-01-23T04:22:11.855Z,42.52
2019-01-23T04:23:13.905Z,42.52
2019-01-23T04:24:15.839Z,42.54
2019-01-23T04:25:17.768Z,42.55
2019-01-23T04:26:19.720Z,42.49
2019-01-23T04:27:21.734Z,42.49
2019-01-23T04:28:23.703Z,42.48
2019-01-23T04:29:25.659Z,42.48
2019-01-23T04:30:27.669Z,42.48
2019-01-23T04:31:29.621Z,42.49
2019-01-23T04:32:31.688Z,42.50
2019-01-23T04:33:33.699Z,42.49
2019-01-23T04:34:35.785Z,42.50
2019-01-23T04:35:38.661Z,42.46
2019-01-23T04:36:40.615Z,42.50
2019-01-23T04:37:42.803Z,42.50
2019-01-23T04:38:44.909Z,42.46
2019-01-23T04:39:46.861Z,42.49
2019-01-23T04:40:48.795Z,42.45
2019-01-23T04:41:50.738Z,42.51
2019-01-23T04:42:52.669Z,42.47
2019-01-23T04:43:54.621Z,42.47
2019-01-23T04:44:56.566Z,42.51
2019-01-23T04:46:01.281Z,42.48
2019-01-23T04:47:03.234Z,42.47
2019-01-23T04:48:05.188Z,42.48
2019-01-23T04:49:08.242Z,42.50
2019-01-23T04:50:10.259Z,42.49
2019-01-23T04:51:19.239Z,42.48
2019-01-23T04:52:35.584Z,42.50
2019-01-23T04:53:41.090Z,42.48
2019-01-23T04:54:43.046Z,42.48
2019-01-23T04:55:45.012Z,42.49
2019-01-23T04:56:46.963Z,42.50
2019-01-23T04:57:48.915Z,42.51
2019-01-23T04:58:50.946Z,42.51
2019-01-23T04:59:52.892Z,42.50
2019-01-23T05:00:54.843Z,42.49
2019-01-23T05:01:56.792Z,42.47
2019-01-23T05:02:58.735Z,42.47
2019-01-23T05:04:00.674Z,42.48
2019-01-23T05:05:02.629Z,42.48
2019-01-23T05:06:04.577Z,42.46
2019-01-23T05:07:06.609Z,42.47
2019-01-23T05:08:10.926Z,42.48
2019-01-23T05:09:12.888Z,42.48
2019-01-23T05:10:14.899Z,42.49
2019-01-23T05:11:16.855Z,42.48
2019-01-23T05:12:18.824Z,42.48
2019-01-23T05:13:20.771Z,42.47
2019-01-23T05:14:22.748Z,42.47
2019-01-23T05:15:24.722Z,42.47
2019-01-23T05:16:26.742Z,42.51
2019-01-23T05:17:28.757Z,42.45
2019-01-23T05:18:30.933Z,42.49
2019-01-23T05:19:32.987Z,42.50
2019-01-23T05:20:34.929Z,42.48
2019-01-23T05:21:36.886Z,42.47
2019-01-23T05:22:38.833Z,42.47
2019-01-23T05:23:40.768Z,42.47
2019-01-23T05:24:42.746Z,42.47
2019-01-23T05:25:44.729Z,42.45
2019-01-23T05:26:46.676Z,42.43
2019-01-23T05:27:48.628Z,42.45
2019-01-23T05:28:50.587Z,42.45
2019-01-23T05:29:54.946Z,42.44
2019-01-23T05:30:56.258Z,42.42
2019-01-23T05:31:58.216Z,42.42
2019-01-23T05:33:00.246Z,42.40
2019-01-23T05:34:02.261Z,42.39
2019-01-23T05:35:04.245Z,42.44
2019-01-23T05:36:06.213Z,42.41
2019-01-23T05:37:08.245Z,42.39
2019-01-23T05:38:10.194Z,42.43
2019-01-23T05:39:12.155Z,42.40
2019-01-23T05:40:14.198Z,42.42
2019-01-23T05:41:16.149Z,42.38
2019-01-23T05:42:18.170Z,42.37
2019-01-23T05:43:20.198Z,42.37
2019-01-23T05:44:22.251Z,42.37
2019-01-23T05:45:24.214Z,42.37
2019-01-23T05:46:26.232Z,42.36
2019-01-23T05:47:28.161Z,42.35
2019-01-23T05:48:30.118Z,42.34
2019-01-23T05:49:32.258Z,42.38
2019-01-23T05:50:34.239Z,42.37
2019-01-23T05:51:36.168Z,42.38
2019-01-23T05:52:38.114Z,42.38
2019-01-23T05:53:40.138Z,42.38
2019-01-23T05:54:42.071Z,42.38
2019-01-23T05:55:44.066Z,42.39
2019-01-23T05:56:46.079Z,42.45
2019-01-23T05:57:48.085Z,42.46
2019-01-23T05:58:50.032Z,42.39
2019-01-23T05:59:52.032Z,42.46
2019-01-23T06:00:54.055Z,42.49
2019-01-23T06:01:56.073Z,42.41
2019-01-23T06:02:58.041Z,42.38
2019-01-23T06:04:00.077Z,42.38
2019-01-23T06:05:02.033Z,42.37
2019-01-23T06:06:04.026Z,42.45
2019-01-23T06:07:06.037Z,42.33
2019-01-23T06:08:07.994Z,42.28
2019-01-23T06:09:09.948Z,42.28
2019-01-23T06:10:11.978Z,42.20
2019-01-23T06:11:14.028Z,42.23
2019-01-23T06:12:16.046Z,42.15
2019-01-23T06:13:17.988Z,42.12
2019-01-23T06:14:19.945Z,41.95
2019-01-23T06:15:21.886Z,42.02
2019-01-23T06:16:24.809Z,41.88
2019-01-23T06:17:28.255Z,41.81
2019-01-23T06:18:30.261Z,41.83
2019-01-23T06:19:32.205Z,41.93
2019-01-23T06:20:34.154Z,41.77
2019-01-23T06:21:36.105Z,41.75
2019-01-23T06:22:39.262Z,41.74
2019-01-23T06:23:41.189Z,41.77
2019-01-23T06:24:43.148Z,41.81
2019-01-23T06:25:45.097Z,41.84
2019-01-23T06:26:47.072Z,41.88
2019-01-23T06:27:49.021Z,41.91
2019-01-23T06:28:52.586Z,41.89
2019-01-23T06:29:54.540Z,41.95
2019-01-23T06:30:56.479Z,41.92
2019-01-23T06:31:58.464Z,41.91
2019-01-23T06:33:00.408Z,41.94
2019-01-23T06:34:02.423Z,41.97
2019-01-23T06:35:04.371Z,42.01
2019-01-23T06:36:06.322Z,42.03
2019-01-23T06:37:08.289Z,42.08
2019-01-23T06:38:10.419Z,42.10
2019-01-23T06:39:12.413Z,42.11
2019-01-23T06:40:14.371Z,42.13
2019-01-23T06:41:16.298Z,42.16
2019-01-23T06:42:18.320Z,42.17
2019-01-23T06:43:21.652Z,42.22
2019-01-23T06:44:23.687Z,42.24
2019-01-23T06:45:25.643Z,42.28
2019-01-23T06:46:27.594Z,42.30
2019-01-23T06:47:29.559Z,42.31
2019-01-23T06:48:31.502Z,42.33
2019-01-23T06:49:33.460Z,42.36
2019-01-23T06:50:35.408Z,42.39
2019-01-23T06:51:37.411Z,42.38
2019-01-23T06:52:39.429Z,42.39
2019-01-23T06:53:41.409Z,42.38
2019-01-23T06:54:43.561Z,42.44
2019-01-23T06:55:45.520Z,42.47
2019-01-23T06:56:47.599Z,42.54
2019-01-23T06:57:49.759Z,42.55
2019-01-23T06:58:51.703Z,42.54
2019-01-23T06:59:53.649Z,42.56
2019-01-23T07:00:55.600Z,42.61
2019-01-23T07:01:57.613Z,42.63
2019-01-23T07:02:59.588Z,42.65
2019-01-23T07:04:01.553Z,42.60
2019-01-23T07:05:03.482Z,42.57
2019-01-23T07:06:05.431Z,42.64
2019-01-23T07:07:07.381Z,42.69
2019-01-23T07:08:09.367Z,42.71
2019-01-23T07:09:11.317Z,42.56
2019-01-23T07:10:13.331Z,42.52
2019-01-23T07:11:15.279Z,42.55
2019-01-23T07:12:17.222Z,42.50
2019-01-23T07:13:19.203Z,42.54
2019-01-23T07:14:21.143Z,42.49
2019-01-23T07:15:23.111Z,42.55
2019-01-23T07:16:25.065Z,42.61
2019-01-23T07:17:27.022Z,42.61
2019-01-23T07:18:29.015Z,42.51
2019-01-23T07:19:30.980Z,42.55
2019-01-23T07:20:32.941Z,42.55
2019-01-23T07:21:34.902Z,42.46
2019-01-23T07:22:36.945Z,42.43
2019-01-23T07:23:38.936Z,42.44
2019-01-23T07:24:41.011Z,42.47
2019-01-23T07:25:43.035Z,42.40
2019-01-23T07:26:45.009Z,42.34
2019-01-23T07:27:46.974Z,42.46
2019-01-23T07:28:49.387Z,42.42
2019-01-23T07:29:51.492Z,42.40
2019-01-23T07:30:53.441Z,42.43
2019-01-23T07:31:55.466Z,42.42
2019-01-23T07:32:57.424Z,42.41
2019-01-23T07:33:59.471Z,42.42
2019-01-23T07:35:01.442Z,42.45
2019-01-23T07:36:03.440Z,42.43
2019-01-23T07:37:05.410Z,42.40
2019-01-23T07:38:07.466Z,42.40
2019-01-23T07:39:09.548Z,42.37
2019-01-23T07:40:11.567Z,42.43
2019-01-23T07:41:13.523Z,42.37
2019-01-23T07:42:15.474Z,42.48
2019-01-23T07:43:17.437Z,42.55
2019-01-23T07:44:19.485Z,42.46
2019-01-23T07:45:21.444Z,42.35
2019-01-23T07:46:24.874Z,42.26
2019-01-23T07:47:26.828Z,42.09
2019-01-23T07:48:28.861Z,41.98
2019-01-23T07:49:30.844Z,41.87
2019-01-23T07:50:32.795Z,41.78
2019-01-23T07:51:34.883Z,41.76
2019-01-23T07:52:37.034Z,41.67
2019-01-23T07:53:39.088Z,41.60
2019-01-23T07:54:41.162Z,41.56
2019-01-23T07:55:43.241Z,41.62
2019-01-23T07:56:45.347Z,41.55
2019-01-23T07:57:47.299Z,41.52
2019-01-23T07:58:49.319Z,41.41
2019-01-23T07:59:51.300Z,41.46
2019-01-23T08:00:53.257Z,41.47
2019-01-23T08:01:55.223Z,41.42
2019-01-23T08:02:57.189Z,41.38
2019-01-23T08:03:59.147Z,41.42
2019-01-23T08:05:01.472Z,41.40
2019-01-23T08:06:03.500Z,41.47
2019-01-23T08:07:05.474Z,41.47
2019-01-23T08:08:09.769Z,41.48
2019-01-23T08:09:11.182Z,41.49
2019-01-23T08:10:13.176Z,41.49
2019-01-23T08:11:15.110Z,41.55
2019-01-23T08:12:17.080Z,41.66
2019-01-23T08:13:19.177Z,41.75
2019-01-23T08:14:21.355Z,41.75
2019-01-23T08:15:23.385Z,41.75
2019-01-23T08:16:25.530Z,41.81
2019-01-23T08:17:32.725Z,41.86
2019-01-23T08:18:33.348Z,41.93
2019-01-23T08:19:35.376Z,41.98
2019-01-23T08:20:37.329Z,42.02
2019-01-23T08:21:39.293Z,42.07
2019-01-23T08:22:41.507Z,42.08
2019-01-23T08:23:43.458Z,42.07
2019-01-23T08:24:45.468Z,42.12
2019-01-23T08:25:47.471Z,42.17
2019-01-23T08:26:49.439Z,42.20
2019-01-23T08:27:51.448Z,42.20
2019-01-23T08:28:53.400Z,42.23
2019-01-23T08:29:55.372Z,42.26
2019-01-23T08:30:57.353Z,42.23
2019-01-23T08:31:59.312Z,42.24
2019-01-23T08:33:01.258Z,42.25
2019-01-23T08:34:03.216Z,42.25
2019-01-23T08:35:05.167Z,42.23
2019-01-23T08:36:07.137Z,42.21
2019-01-23T08:37:09.084Z,42.22
2019-01-23T08:38:11.041Z,42.29
2019-01-23T08:39:13.003Z,42.27
2019-01-23T08:40:15.034Z,42.29
2019-01-23T08:41:17.111Z,42.35
2019-01-23T08:42:19.134Z,42.32
2019-01-23T08:43:21.248Z,42.31
2019-01-23T08:44:23.436Z,42.32
2019-01-23T08:45:25.536Z,42.34
2019-01-23T08:46:27.515Z,42.36
2019-01-23T08:47:29.548Z,42.34
2019-01-23T08:48:31.515Z,42.40
2019-01-23T08:49:33.477Z,42.42
2019-01-23T08:50:35.431Z,42.42
2019-01-23T08:51:37.375Z,42.42
2019-01-23T08:52:39.342Z,42.39
2019-01-23T08:53:41.372Z,42.42
2019-01-23T08:54:43.331Z,42.42
2019-01-23T08:55:45.311Z,42.37
2019-01-23T08:56:47.282Z,42.34
2019-01-23T08:57:49.281Z,42.31
2019-01-23T08:58:51.305Z,42.31
2019-01-23T08:59:53.241Z,42.27
2019-01-23T09:00:55.220Z,42.26
2019-01-23T09:01:57.158Z,42.22
2019-01-23T09:02:59.103Z,42.15
2019-01-23T09:04:01.078Z,42.16
2019-01-23T09:05:03.106Z,42.03
2019-01-23T09:06:05.164Z,41.93
2019-01-23T09:07:07.111Z,41.96
2019-01-23T09:08:09.048Z,41.89
2019-01-23T09:09:11.204Z,41.88
2019-01-23T09:10:13.346Z,42.10
2019-01-23T09:11:15.319Z,41.96
2019-01-23T09:12:17.331Z,41.97
2019-01-23T09:13:19.299Z,41.79
2019-01-23T09:14:21.388Z,41.93
2019-01-23T09:15:24.001Z,41.82
2019-01-23T09:16:26.063Z,42.01
2019-01-23T09:17:28.021Z,41.83
2019-01-23T09:18:29.986Z,41.68
2019-01-23T09:19:32.028Z,41.81
2019-01-23T09:20:33.997Z,41.74
2019-01-23T09:21:35.974Z,41.89
2019-01-23T09:22:37.955Z,41.71
2019-01-23T09:23:39.948Z,41.64
2019-01-23T09:24:41.899Z,41.71
2019-01-23T09:25:49.654Z,41.66
2019-01-23T09:26:47.572Z,41.72
2019-01-23T09:27:49.587Z,41.73
2019-01-23T09:28:51.539Z,41.75
2019-01-23T09:29:53.502Z,41.71
2019-01-23T09:30:55.456Z,41.71
2019-01-23T09:31:57.424Z,41.72
2019-01-23T09:32:59.394Z,41.75
2019-01-23T09:34:01.343Z,41.77
2019-01-23T09:35:03.285Z,41.78
2019-01-23T09:36:05.270Z,41.82
2019-01-23T09:37:07.326Z,41.83
2019-01-23T09:38:09.290Z,41.84
2019-01-23T09:39:11.262Z,41.84
2019-01-23T09:40:13.227Z,41.87
2019-01-23T09:41:17.280Z,41.88
2019-01-23T09:42:19.403Z,41.90
2019-01-23T09:43:21.361Z,41.88
2019-01-23T09:44:23.409Z,41.89
2019-01-23T09:45:25.355Z,41.87
2019-01-23T09:46:27.716Z,41.91
2019-01-23T09:47:32.185Z,41.91
2019-01-23T09:48:34.221Z,41.90
2019-01-23T09:49:36.184Z,41.88
2019-01-23T09:50:38.130Z,41.88
2019-01-23T09:51:40.071Z,41.86
2019-01-23T09:52:42.052Z,41.89
2019-01-23T09:53:44.080Z,41.87
2019-01-23T09:54:46.095Z,41.90
2019-01-23T09:55:50.354Z,41.87
2019-01-23T09:56:52.366Z,41.91
2019-01-23T09:57:55.952Z,41.92
2019-01-23T09:59:02.525Z,41.92
2019-01-23T10:00:01.692Z,41.94
2019-01-23T10:01:06.553Z,41.89
2019-01-23T10:02:07.334Z,41.94
2019-01-23T10:03:09.394Z,41.92
2019-01-23T10:04:11.352Z,41.92
2019-01-23T10:05:13.304Z,41.94
2019-01-23T10:06:15.336Z,41.94
2019-01-23T10:07:17.281Z,41.93
2019-01-23T10:08:19.269Z,41.95
2019-01-23T10:09:22.988Z,41.93
2019-01-23T10:10:24.960Z,41.94
2019-01-23T10:11:26.994Z,41.95
2019-01-23T10:12:29.047Z,41.92
2019-01-23T10:13:31.309Z,41.97
2019-01-23T10:14:33.269Z,41.97
2019-01-23T10:15:35.230Z,41.96
2019-01-23T10:16:37.199Z,41.96
2019-01-23T10:17:39.162Z,41.92
2019-01-23T10:18:41.166Z,41.91
2019-01-23T10:19:43.115Z,42.02
2019-01-23T10:20:45.315Z,41.96
2019-01-23T10:21:47.303Z,41.96
2019-01-23T10:22:49.303Z,41.94
2019-01-23T10:23:51.267Z,41.92
2019-01-23T10:24:53.296Z,41.92
2019-01-23T10:25:55.265Z,41.92
2019-01-23T10:26:58.996Z,41.94
2019-01-23T10:28:01.025Z,41.93
2019-01-23T10:29:03.175Z,41.88
2019-01-23T10:30:07.275Z,41.90
2019-01-23T10:31:09.238Z,41.96
2019-01-23T10:32:11.199Z,41.90
2019-01-23T10:33:13.138Z,41.91
2019-01-23T10:34:15.133Z,41.91
2019-01-23T10:35:17.119Z,41.95
2019-01-23T10:36:19.176Z,41.94
2019-01-23T10:37:21.128Z,41.87
2019-01-23T10:38:23.079Z,41.92
2019-01-23T10:39:25.144Z,41.90
2019-01-23T10:40:27.228Z,41.86
2019-01-23T10:41:29.254Z,41.87
2019-01-23T10:42:31.203Z,41.85
2019-01-23T10:43:35.447Z,41.86
2019-01-23T10:44:37.435Z,41.85
2019-01-23T10:45:39.379Z,41.91
2019-01-23T10:46:41.323Z,41.89
2019-01-23T10:47:43.286Z,41.83
2019-01-23T10:48:45.320Z,41.89
2019-01-23T10:49:47.319Z,41.82
2019-01-23T10:50:49.555Z,41.92
2019-01-23T10:51:51.512Z,41.83
2019-01-23T10:52:53.452Z,41.80
2019-01-23T10:53:55.423Z,41.87
2019-01-23T10:54:58.758Z,41.87
2019-01-23T10:56:00.813Z,41.87
2019-01-23T10:57:02.851Z,41.82
2019-01-23T10:58:04.876Z,41.81
2019-01-23T10:59:06.910Z,41.93
2019-01-23T11:00:08.979Z,41.87
2019-01-23T11:01:13.484Z,41.84
2019-01-23T11:02:15.059Z,41.80
2019-01-23T11:03:18.838Z,41.81
2019-01-23T11:04:20.815Z,41.80
2019-01-23T11:05:25.924Z,41.82
2019-01-23T11:06:27.925Z,41.82
2019-01-23T11:07:30.250Z,41.85
2019-01-23T11:08:32.194Z,41.84
2019-01-23T11:09:34.156Z,41.84
2019-01-23T11:10:36.236Z,41.83
2019-01-23T11:11:38.192Z,41.81
2019-01-23T11:12:40.147Z,41.80
2019-01-23T11:13:44.475Z,41.82
2019-01-23T11:14:46.436Z,41.81
2019-01-23T11:15:48.424Z,41.80
2019-01-23T11:16:50.489Z,41.80
2019-01-23T11:17:52.482Z,41.76
2019-01-23T11:18:56.746Z,41.76
2019-01-23T11:19:58.785Z,41.75
2019-01-23T11:21:00.814Z,41.79
2019-01-23T11:22:02.868Z,41.79
2019-01-23T11:23:04.892Z,41.77
2019-01-23T11:24:06.862Z,41.73
2019-01-23T11:25:08.888Z,41.71
2019-01-23T11:26:10.868Z,41.71
2019-01-23T11:27:14.431Z,41.69
2019-01-23T11:28:16.354Z,41.65
2019-01-23T11:29:18.311Z,41.68
2019-01-23T11:30:20.266Z,41.74
2019-01-23T11:31:22.242Z,41.69
2019-01-23T11:32:24.317Z,41.70
2019-01-23T11:33:26.367Z,41.73
2019-01-23T11:34:28.406Z,41.71
2019-01-23T11:35:30.881Z,41.64
2019-01-23T11:36:35.351Z,41.67
2019-01-23T11:37:40.580Z,41.65
2019-01-23T11:38:42.733Z,41.68
2019-01-23T11:39:44.758Z,41.70
2019-01-23T11:40:46.750Z,41.64
2019-01-23T11:41:48.758Z,41.58
2019-01-23T11:42:50.810Z,41.54
2019-01-23T11:43:52.871Z,41.52
2019-01-23T11:44:54.832Z,41.67
2019-01-23T11:45:56.868Z,41.48
2019-01-23T11:46:58.875Z,41.54
2019-01-23T11:48:00.906Z,41.47
2019-01-23T11:49:02.927Z,41.47
2019-01-23T11:50:07.834Z,41.62
2019-01-23T11:51:09.792Z,41.47
2019-01-23T11:52:11.791Z,41.68
2019-01-23T11:53:14.046Z,41.50
2019-01-23T11:54:17.674Z,41.46
2019-01-23T11:55:19.944Z,41.40
2019-01-23T11:56:21.913Z,41.44
2019-01-23T11:57:23.979Z,41.45
2019-01-23T11:58:26.021Z,41.41
2019-01-23T11:59:28.052Z,41.40
2019-01-23T12:00:34.366Z,41.62
2019-01-23T12:01:36.381Z,41.49
2019-01-23T12:02:38.358Z,41.42
2019-01-23T12:03:40.440Z,41.45
2019-01-23T12:04:42.515Z,41.41
2019-01-23T12:05:44.484Z,41.44
2019-01-23T12:06:46.550Z,41.40
2019-01-23T12:07:51.963Z,41.42
2019-01-23T12:08:54.019Z,41.35
2019-01-23T12:09:57.290Z,41.44
2019-01-23T12:10:59.344Z,41.40
2019-01-23T12:12:01.375Z,41.41
2019-01-23T12:13:05.203Z,41.40
2019-01-23T12:14:13.369Z,41.44
2019-01-23T12:15:16.600Z,41.44
2019-01-23T12:16:18.576Z,41.41
2019-01-23T12:17:23.366Z,41.42
2019-01-23T12:18:25.405Z,41.46
2019-01-23T12:19:27.434Z,41.41
2019-01-23T12:20:32.116Z,41.41
2019-01-23T12:21:35.447Z,41.44
2019-01-23T12:22:37.411Z,41.43
2019-01-23T12:23:39.468Z,41.65
2019-01-23T12:24:41.441Z,41.48
2019-01-23T12:25:43.462Z,41.50
2019-01-23T12:26:45.415Z,41.45
2019-01-23T12:27:47.425Z,41.52
2019-01-23T12:28:53.550Z,41.48
2019-01-23T12:29:55.595Z,41.43
2019-01-23T12:31:00.430Z,41.43
2019-01-23T12:32:01.763Z,41.45
2019-01-23T12:33:03.718Z,41.44
2019-01-23T12:34:08.642Z,41.50
2019-01-23T12:35:10.627Z,41.43
2019-01-23T12:36:12.578Z,41.53
2019-01-23T12:37:14.555Z,41.44
2019-01-23T12:38:16.571Z,41.45
2019-01-23T12:39:18.557Z,41.48
2019-01-23T12:40:20.588Z,41.46
2019-01-23T12:41:22.617Z,41.47
2019-01-23T12:42:24.573Z,41.46
2019-01-23T12:43:26.539Z,41.49
2019-01-23T12:44:28.523Z,41.49
2019-01-23T12:45:30.536Z,41.46
2019-01-23T12:46:32.547Z,41.50
2019-01-23T12:47:34.503Z,41.48
2019-01-23T12:48:36.484Z,41.50
2019-01-23T12:49:38.487Z,41.48
2019-01-23T12:50:40.532Z,41.48
2019-01-23T12:51:44.775Z,41.48
2019-01-23T12:52:46.176Z,41.56
2019-01-23T12:53:48.166Z,41.47
2019-01-23T12:54:50.230Z,41.47
2019-01-23T12:55:52.182Z,41.47
2019-01-23T12:56:54.148Z,41.50
2019-01-23T12:57:56.150Z,41.51
2019-01-23T12:58:58.233Z,41.47
2019-01-23T13:00:05.094Z,41.48
2019-01-23T13:01:03.934Z,41.51
2019-01-23T13:02:09.719Z,41.57
2019-01-23T13:03:11.239Z,41.53
2019-01-23T13:04:13.234Z,41.55
2019-01-23T13:05:15.233Z,41.52
2019-01-23T13:06:17.187Z,41.54
2019-01-23T13:07:19.229Z,41.53
2019-01-23T13:08:21.170Z,41.56
2019-01-23T13:09:23.131Z,41.51
2019-01-23T13:10:25.127Z,41.54
2019-01-23T13:11:27.077Z,41.52
2019-01-23T13:12:29.116Z,41.53
2019-01-23T13:13:31.063Z,41.52
2019-01-23T13:14:33.007Z,41.55
2019-01-23T13:15:35.030Z,41.54
2019-01-23T13:16:37.061Z,41.61
2019-01-23T13:17:40.841Z,41.58
2019-01-23T13:18:42.801Z,41.55
2019-01-23T13:19:44.871Z,41.54
2019-01-23T13:20:46.872Z,41.52
2019-01-23T13:21:50.104Z,41.56